Time;durP1;ratioP1;P1;durP2;ratioP2;P2;SDS_P1;SDS_P2;PMS_P1;PMS_P2;Temp;Humidity;BMP_temperature;BMP_pressure;BME280_temperature;BME280_humidity;BME280_pressure;Samples;Min_cycle;Max_cycle;Signal;HPM_P1;HPM_P2
2023/01/02 00:05:38;;;;;;;1999.90;999.90;;;14.30;99.90;;;;;;6715273;88;20253;-76
2023/01/02 00:15:39;;;;;;;1999.90;999.90;;;14.50;99.90;;;;;;6713884;88;20238;-77
2023/01/02 00:25:40;;;;;;;1999.90;999.90;;;14.60;99.90;;;;;;6713845;88;20276;-77
2023/01/02 00:35:40;;;;;;;1999.90;999.90;;;14.70;99.90;;;;;;6712183;88;20206;-77
2023/01/02 00:45:42;;;;;;;1999.90;999.90;;;14.90;99.90;;;;;;6714721;88;20613;-75
2023/01/02 00:55:44;;;;;;;1999.90;999.90;;;14.80;99.90;;;;;;6716782;88;20197;-74
2023/01/02 01:05:44;;;;;;;1999.90;999.90;;;14.70;99.90;;;;;;6722025;88;20743;-76
2023/01/02 01:15:45;;;;;;;1999.90;999.90;;;14.60;99.90;;;;;;6716141;88;20676;-76
2023/01/02 01:25:45;;;;;;;1999.90;999.90;;;14.80;99.90;;;;;;6718897;88;20214;-75
2023/01/02 01:35:46;;;;;;;1999.90;999.90;;;14.70;99.90;;;;;;6717653;88;20193;-76
2023/01/02 01:45:46;;;;;;;1999.90;999.90;;;14.70;99.90;;;;;;6715165;88;20916;-76
2023/01/02 01:55:58;;;;;;;1999.90;999.90;;;14.50;99.90;;;;;;6712503;88;20223;-76
2023/01/02 02:06:00;;;;;;;1999.90;999.90;;;14.40;99.90;;;;;;6736163;88;20206;-75
2023/01/02 02:16:13;;;;;;;1999.90;999.90;;;14.60;99.90;;;;;;6733279;88;20220;-76
2023/01/02 02:26:45;;;;;;;1999.90;999.90;;;14.40;99.90;;;;;;6731011;88;20670;-75
2023/01/02 02:37:01;;;;;;;1999.90;999.90;;;14.40;99.90;;;;;;6739305;88;20185;-74
2023/01/02 02:47:07;;;;;;;;;;;14.50;99.90;;;;;;6735255;88;20192;-75
2023/01/02 02:57:09;;;;;;;1999.90;999.90;;;14.30;99.90;;;;;;6729187;88;20095;-75
2023/01/02 03:07:21;;;;;;;1999.90;999.90;;;14.20;99.90;;;;;;6725255;88;20323;-76
2023/01/02 03:17:52;;;;;;;1999.90;999.90;;;14.20;99.90;;;;;;6736876;88;20204;-76
2023/01/02 03:27:56;;;;;;;1999.90;999.90;;;14.20;99.90;;;;;;6740043;88;20262;-76
2023/01/02 03:37:58;;;;;;;1999.90;999.90;;;14.30;99.90;;;;;;6732676;88;20314;-76
2023/01/02 03:48:28;;;;;;;1999.90;999.90;;;14.20;99.90;;;;;;6737207;88;20625;-76
2023/01/02 03:58:47;;;;;;;1999.90;999.90;;;14.30;99.90;;;;;;6734116;88;20285;-76
2023/01/02 04:09:00;;;;;;;1999.90;999.90;;;14.40;99.90;;;;;;6733701;88;20199;-76
2023/01/02 04:19:06;;;;;;;1999.90;999.90;;;14.40;99.90;;;;;;6737539;88;20253;-76
2023/01/02 04:29:06;;;;;;;1999.90;999.90;;;14.30;99.90;;;;;;6736964;88;20236;-76
2023/01/02 04:39:07;;;;;;;1999.90;999.90;;;14.40;99.90;;;;;;6734444;88;20322;-76
2023/01/02 04:49:09;;;;;;;1999.90;999.90;;;14.40;99.90;;;;;;6736076;88;20531;-76
2023/01/02 04:59:09;;;;;;;1999.90;999.90;;;14.40;99.90;;;;;;6724802;88;20207;-76
2023/01/02 05:09:10;;;;;;;1999.90;999.90;;;14.30;99.90;;;;;;6715882;88;20228;-75
2023/01/02 05:19:11;;;;;;;1999.90;999.90;;;14.30;99.90;;;;;;6716777;88;20316;-75
2023/01/02 05:29:12;;;;;;;1999.90;999.90;;;14.30;99.90;;;;;;6716510;88;20248;-75
2023/01/02 05:39:13;;;;;;;1999.90;999.90;;;14.40;99.90;;;;;;6721572;88;20708;-76
2023/01/02 05:49:13;;;;;;;1999.90;999.90;;;14.50;99.90;;;;;;6713091;88;20190;-76
2023/01/02 06:09:17;;;;;;;1999.90;999.90;;;14.50;99.90;;;;;;6728535;88;20217;-80
2023/01/02 06:19:18;;;;;;;1999.90;999.90;;;14.60;99.90;;;;;;6724580;88;20218;-80
2023/01/02 06:29:18;;;;;;;1999.90;999.90;;;14.50;99.90;;;;;;6724060;88;21060;-80
2023/01/02 06:39:19;;;;;;;1999.90;999.90;;;14.60;99.90;;;;;;6727588;88;20201;-80
2023/01/02 06:49:19;;;;;;;1999.90;999.90;;;14.50;99.90;;;;;;6727214;88;20203;-80
2023/01/02 06:59:20;;;;;;;1999.90;999.90;;;14.40;99.90;;;;;;6724234;88;20208;-80
2023/01/02 07:09:20;;;;;;;1999.90;999.90;;;14.40;99.90;;;;;;6724727;88;20288;-79
2023/01/02 07:19:21;;;;;;;1999.90;999.90;;;14.30;99.90;;;;;;6726046;88;20753;-80
2023/01/02 07:29:21;;;;;;;1999.90;999.90;;;14.20;99.90;;;;;;6728165;88;20205;-78
2023/01/02 07:39:23;;;;;;;1999.90;999.90;;;14.10;99.90;;;;;;6730456;88;20324;-79
2023/01/02 07:49:23;;;;;;;1999.90;999.90;;;14.10;99.90;;;;;;6731604;88;20189;-79
2023/01/02 07:59:24;;;;;;;1999.90;999.90;;;14.10;99.90;;;;;;6731843;88;20181;-79
2023/01/02 08:09:24;;;;;;;1999.90;999.90;;;14.10;99.90;;;;;;6730115;88;20246;-79
2023/01/02 08:19:25;;;;;;;1999.90;999.90;;;14.10;99.90;;;;;;6727707;88;20185;-80
2023/01/02 08:29:25;;;;;;;1999.90;999.90;;;14.20;99.90;;;;;;6731317;88;20313;-80
2023/01/02 08:39:26;;;;;;;1999.90;999.90;;;14.20;99.90;;;;;;6732228;88;20305;-80
2023/01/02 08:49:26;;;;;;;1999.90;999.90;;;14.20;99.90;;;;;;6731576;88;20358;-80
2023/01/02 08:59:27;;;;;;;1999.90;999.90;;;14.20;99.90;;;;;;6727030;88;21047;-78
2023/01/02 09:09:28;;;;;;;1999.90;999.90;;;14.20;99.90;;;;;;6726513;88;20219;-79
2023/01/02 09:19:29;;;;;;;1999.90;999.90;;;14.10;99.90;;;;;;6730653;88;20563;-79
2023/01/02 09:29:29;;;;;;;1999.90;999.90;;;14.00;99.90;;;;;;6726675;88;20339;-80
2023/01/02 09:39:30;;;;;;;1999.90;999.90;;;13.50;99.90;;;;;;6727020;88;20307;-79
2023/01/02 09:49:35;;;;;;;1999.90;999.90;;;12.50;99.90;;;;;;6723362;88;20230;-80
2023/01/02 09:59:55;;;;;;;1999.90;999.90;;;12.20;99.90;;;;;;6725701;88;20614;-78
2023/01/02 10:10:08;;;;;;;1999.90;999.90;;;11.90;99.90;;;;;;6723376;88;20211;-78
2023/01/02 10:20:26;;;;;;;1999.90;999.90;;;11.80;99.90;;;;;;6723963;88;20340;-80
2023/01/02 10:30:34;;;;;;;1999.90;999.90;;;11.70;99.90;;;;;;6718766;88;20607;-78
2023/01/02 10:40:37;;;;;;;1999.90;999.90;;;11.70;99.90;;;;;;6727162;88;20213;-78
2023/01/02 10:50:46;;;;;;;1999.90;999.90;;;11.70;99.90;;;;;;6725651;88;20369;-78
2023/01/02 11:00:49;;;;;;;1999.90;999.90;;;11.70;99.90;;;;;;6729272;88;20170;-78
2023/01/02 11:10:50;;;;;;;1999.90;999.90;;;11.70;99.90;;;;;;6728743;88;20194;-78
2023/01/02 11:20:54;;;;;;;1999.90;999.90;;;11.80;99.90;;;;;;6724715;88;20266;-78
2023/01/02 11:31:04;;;;;;;1999.90;999.90;;;11.70;99.90;;;;;;6726507;88;20197;-78
2023/01/02 11:41:05;;;;;;;1999.90;999.90;;;11.70;99.90;;;;;;6724199;88;20275;-78
2023/01/02 11:51:15;;;;;;;1999.90;999.90;;;11.80;99.90;;;;;;6718420;88;20206;-77
2023/01/02 12:01:48;;;;;;;1999.90;999.90;;;11.70;99.90;;;;;;6678977;77;20233;-75
2023/01/02 12:12:07;;;;;;;1999.90;999.90;;;11.60;99.90;;;;;;6638997;88;20178;-76
2023/01/02 12:22:29;;;;;;;1999.90;999.90;;;11.80;99.90;;;;;;6652985;88;20214;-77
2023/01/02 12:32:55;;;;;;;1999.90;999.90;;;11.80;99.90;;;;;;6641683;88;20669;-76
2023/01/02 12:43:31;;;;;;;1999.90;999.90;;;11.90;99.90;;;;;;6636111;88;20845;-77
2023/01/02 12:53:44;;;;;;;1999.90;999.90;;;11.90;99.90;;;;;;6642599;88;20510;-77
2023/01/02 13:04:03;;;;;;;1999.90;999.90;;;12.00;99.90;;;;;;6635825;88;20201;-77
2023/01/02 13:14:06;;;;;;;1999.90;999.90;;;12.00;99.90;;;;;;6628675;88;20321;-76
2023/01/02 13:24:10;;;;;;;1999.90;999.90;;;11.80;99.90;;;;;;6629534;88;20714;-75
2023/01/02 13:34:17;;;;;;;1999.90;999.90;;;11.40;99.90;;;;;;6612019;88;20666;-77
2023/01/02 13:44:29;;;;;;;1999.90;999.90;;;11.30;99.90;;;;;;6627689;88;20754;-78
2023/01/02 13:54:36;;;;;;;1999.90;999.90;;;11.30;99.90;;;;;;6617716;89;20227;-77
2023/01/02 14:04:39;;;;;;;1999.90;999.90;;;11.10;99.90;;;;;;6622215;89;20637;-77
2023/01/02 14:14:39;;;;;;;1999.90;999.90;;;11.00;99.90;;;;;;6624384;88;20209;-77
2023/01/02 14:24:45;;;;;;;1999.90;999.90;;;11.00;99.90;;;;;;6645872;88;20350;-78
2023/01/02 14:34:51;;;;;;;1999.90;999.90;;;10.90;99.90;;;;;;6645076;88;20201;-77
2023/01/02 14:44:58;;;;;;;1999.90;999.90;;;10.90;99.90;;;;;;6645253;88;20215;-77
2023/01/02 14:55:21;;;;;;;1999.90;999.90;;;10.80;99.90;;;;;;6635268;88;20190;-77
2023/01/02 15:05:37;;;;;;;1999.90;999.90;;;10.70;99.90;;;;;;6642081;88;20208;-77
2023/01/02 15:15:46;;;;;;;1999.90;999.90;;;10.50;99.90;;;;;;6640104;88;20200;-77
2023/01/02 15:25:47;;;;;;;1999.90;999.90;;;10.40;99.90;;;;;;6625830;88;20181;-78
2023/01/02 15:36:13;;;;;;;1999.90;999.90;;;10.30;99.90;;;;;;6666529;88;20206;-78
2023/01/02 15:46:14;;;;;;;1999.90;999.90;;;10.30;99.90;;;;;;6639531;88;20274;-78
2023/01/02 15:56:32;;;;;;;1999.90;999.90;;;10.20;99.90;;;;;;6642223;88;20222;-78
2023/01/02 16:06:38;;;;;;;1999.90;999.90;;;10.30;99.90;;;;;;6652636;88;20295;-77
2023/01/02 16:16:45;;;;;;;1999.90;999.90;;;10.20;99.90;;;;;;6646291;88;20657;-77
2023/01/02 16:26:46;;;;;;;1999.90;999.90;;;10.10;99.90;;;;;;6633242;88;20319;-77
2023/01/02 16:36:46;;;;;;;1999.90;999.90;;;10.00;99.90;;;;;;6634341;88;20224;-77
2023/01/02 16:46:48;;;;;;;1999.90;999.90;;;10.00;99.90;;;;;;6664667;88;20365;-78
2023/01/02 16:56:49;;;;;;;1999.90;999.90;;;9.90;99.90;;;;;;6633033;88;20226;-78
2023/01/02 17:06:50;;;;;;;1999.90;999.90;;;10.00;99.90;;;;;;6638386;88;20222;-78
2023/01/02 17:16:50;;;;;;;1999.90;999.90;;;9.90;99.90;;;;;;6643974;88;20257;-78
2023/01/02 17:26:50;;;;;;;1999.90;999.90;;;9.90;99.90;;;;;;6642382;88;20206;-77
2023/01/02 17:36:51;;;;;;;1999.90;999.90;;;9.80;99.90;;;;;;6643068;88;20190;-77
2023/01/02 17:46:52;;;;;;;1999.90;999.90;;;9.80;99.90;;;;;;6656323;88;20195;-77
2023/01/02 17:56:52;;;;;;;1999.90;999.90;;;9.80;99.90;;;;;;6653019;77;20226;-77
2023/01/02 18:06:53;;;;;;;1999.90;999.90;;;9.60;99.90;;;;;;6715614;88;20213;-77
2023/01/02 18:16:57;;;;;;;1999.90;999.90;;;9.50;99.90;;;;;;6686180;88;20207;-78
2023/01/02 18:27:09;;;;;;;1999.90;999.90;;;9.40;99.90;;;;;;6700080;88;20628;-78
2023/01/02 18:37:27;;;;;;;1999.90;999.90;;;9.10;99.90;;;;;;6703460;88;20191;-77
2023/01/02 18:47:30;;;;;;;1999.90;999.90;;;9.20;99.90;;;;;;6700155;88;20175;-77
2023/01/02 18:57:37;;;;;;;1999.90;999.90;;;9.30;99.90;;;;;;6696287;88;20770;-77
2023/01/02 19:07:38;;;;;;;1999.90;999.90;;;9.10;99.90;;;;;;6700301;88;20189;-77
2023/01/02 19:17:39;;;;;;;1999.90;999.90;;;9.20;99.90;;;;;;6701463;88;20211;-77
2023/01/02 19:27:40;;;;;;;1999.90;999.90;;;9.30;99.90;;;;;;6698466;88;20285;-77
2023/01/02 19:37:44;;;;;;;1999.90;999.90;;;9.40;99.90;;;;;;6703850;88;20183;-77
2023/01/02 19:47:45;;;;;;;1999.90;999.90;;;9.10;99.90;;;;;;6701727;88;20739;-77
2023/01/02 19:57:46;;;;;;;1999.90;999.90;;;9.30;99.90;;;;;;6700384;88;20633;-77
2023/01/02 20:07:47;;;;;;;1999.90;999.90;;;9.10;99.90;;;;;;6704233;88;20215;-77
2023/01/02 20:17:48;;;;;;;1999.90;999.90;;;9.00;99.90;;;;;;6701221;88;20202;-77
2023/01/02 20:27:49;;;;;;;1999.90;999.90;;;9.00;99.90;;;;;;6693254;88;20637;-77
2023/01/02 20:37:50;;;;;;;1999.90;999.90;;;9.20;99.90;;;;;;6700880;88;20649;-77
2023/01/02 20:47:50;;;;;;;1999.90;999.90;;;9.30;99.90;;;;;;6706621;88;20189;-77
2023/01/02 20:57:51;;;;;;;1999.90;999.90;;;9.20;99.90;;;;;;6705329;88;20688;-77
2023/01/02 21:07:51;;;;;;;1999.90;999.90;;;9.10;99.90;;;;;;6699958;88;20672;-77
2023/01/02 21:17:52;;;;;;;1999.90;999.90;;;9.00;99.90;;;;;;6707621;88;20190;-77
2023/01/02 21:27:52;;;;;;;1999.90;999.90;;;8.70;99.90;;;;;;6701642;88;20234;-77
2023/01/02 21:37:53;;;;;;;1999.90;999.90;;;8.60;99.90;;;;;;6696272;88;20217;-77
2023/01/02 21:47:54;;;;;;;1999.90;999.90;;;8.60;99.90;;;;;;6698730;88;20311;-76
2023/01/02 21:57:55;;;;;;;1999.90;999.90;;;8.50;99.90;;;;;;6701897;88;20241;-77
2023/01/02 22:07:55;;;;;;;1999.90;999.90;;;8.30;99.90;;;;;;6702945;88;20301;-77
2023/01/02 22:17:56;;;;;;;1999.90;999.90;;;8.20;99.90;;;;;;6700263;88;20252;-76
2023/01/02 22:27:56;;;;;;;1999.90;999.90;;;8.40;99.90;;;;;;6699127;88;20197;-77
2023/01/02 22:37:58;;;;;;;1999.90;999.90;;;8.40;99.90;;;;;;6696637;88;20190;-76
2023/01/02 22:48:02;;;;;;;1999.90;999.90;;;8.40;99.90;;;;;;6697739;88;20604;-76
2023/01/02 22:58:04;;;;;;;1999.90;999.90;;;8.30;99.90;;;;;;6702482;88;20359;-76
2023/01/02 23:08:05;;;;;;;1999.90;999.90;;;8.30;99.90;;;;;;6698986;88;20186;-77
2023/01/02 23:28:24;;;;;;;1999.90;999.90;;;8.30;99.90;;;;;;6697172;88;20303;-76
2023/01/02 23:38:25;;;;;;;1999.90;999.90;;;8.50;99.90;;;;;;6699653;88;20339;-77
2023/01/02 23:48:25;;;;;;;1999.90;999.90;;;8.40;99.90;;;;;;6696115;88;20237;-76
2023/01/02 23:58:26;;;;;;;1999.90;999.90;;;8.30;99.90;;;;;;6703471;88;20284;-78
